sensor_id;sensor_type;location;lat;lon;timestamp;temperature;humidity
43949;DHT22;29429;51.074;13.764;2023-06-14T00:00:47;13.30;99.90
43949;DHT22;29429;51.074;13.764;2023-06-14T00:03:15;13.30;99.90
43949;DHT22;29429;51.074;13.764;2023-06-14T00:05:44;13.30;99.90
43949;DHT22;29429;51.074;13.764;2023-06-14T00:08:13;13.20;99.90
43949;DHT22;29429;51.074;13.764;2023-06-14T00:10:41;13.20;99.90
43949;DHT22;29429;51.074;13.764;2023-06-14T00:13:09;13.20;99.90
43949;DHT22;29429;51.074;13.764;2023-06-14T00:15:37;13.10;99.90
43949;DHT22;29429;51.074;13.764;2023-06-14T00:18:04;13.20;99.90
43949;DHT22;29429;51.074;13.764;2023-06-14T00:20:33;13.00;99.90
43949;DHT22;29429;51.074;13.764;2023-06-14T00:23:00;13.00;99.90
43949;DHT22;29429;51.074;13.764;2023-06-14T00:25:28;12.90;99.90
43949;DHT22;29429;51.074;13.764;2023-06-14T00:27:56;12.90;99.90
43949;DHT22;29429;51.074;13.764;2023-06-14T00:30:24;13.00;99.90
43949;DHT22;29429;51.074;13.764;2023-06-14T00:32:52;12.80;99.90
43949;DHT22;29429;51.074;13.764;2023-06-14T00:35:19;12.80;99.90
43949;DHT22;29429;51.074;13.764;2023-06-14T00:37:46;12.70;99.90
43949;DHT22;29429;51.074;13.764;2023-06-14T00:40:13;12.70;99.90
43949;DHT22;29429;51.074;13.764;2023-06-14T00:42:41;12.70;99.90
43949;DHT22;29429;51.074;13.764;2023-06-14T00:45:09;12.60;99.90
43949;DHT22;29429;51.074;13.764;2023-06-14T00:47:38;12.60;99.90
43949;DHT22;29429;51.074;13.764;2023-06-14T00:50:09;12.60;99.90
43949;DHT22;29429;51.074;13.764;2023-06-14T00:52:37;12.50;99.90
43949;DHT22;29429;51.074;13.764;2023-06-14T00:55:05;12.50;99.90
43949;DHT22;29429;51.074;13.764;2023-06-14T00:57:32;12.50;99.90
43949;DHT22;29429;51.074;13.764;2023-06-14T00:59:59;12.40;99.90
43949;DHT22;29429;51.074;13.764;2023-06-14T01:02:26;12.50;99.90
43949;DHT22;29429;51.074;13.764;2023-06-14T01:04:54;12.40;99.90
43949;DHT22;29429;51.074;13.764;2023-06-14T01:13:23;12.30;99.90
43949;DHT22;29429;51.074;13.764;2023-06-14T01:15:56;12.30;99.90
43949;DHT22;29429;51.074;13.764;2023-06-14T01:18:23;12.30;99.90
43949;DHT22;29429;51.074;13.764;2023-06-14T01:20:53;12.20;99.90
43949;DHT22;29429;51.074;13.764;2023-06-14T01:23:24;12.20;99.90
43949;DHT22;29429;51.074;13.764;2023-06-14T01:26:00;12.20;99.90
43949;DHT22;29429;51.074;13.764;2023-06-14T01:28:31;12.20;99.90
43949;DHT22;29429;51.074;13.764;2023-06-14T01:31:01;12.10;99.90
43949;DHT22;29429;51.074;13.764;2023-06-14T01:33:33;12.10;99.90
43949;DHT22;29429;51.074;13.764;2023-06-14T01:36:03;12.00;99.90
43949;DHT22;29429;51.074;13.764;2023-06-14T01:38:33;12.00;99.90
43949;DHT22;29429;51.074;13.764;2023-06-14T01:41:00;12.00;99.90
43949;DHT22;29429;51.074;13.764;2023-06-14T01:43:30;12.00;99.90
43949;DHT22;29429;51.074;13.764;2023-06-14T01:46:00;11.90;99.90
43949;DHT22;29429;51.074;13.764;2023-06-14T01:48:27;11.90;99.90
43949;DHT22;29429;51.074;13.764;2023-06-14T01:50:54;11.90;99.90
43949;DHT22;29429;51.074;13.764;2023-06-14T01:53:21;11.90;99.90
43949;DHT22;29429;51.074;13.764;2023-06-14T01:55:49;11.80;99.90
43949;DHT22;29429;51.074;13.764;2023-06-14T01:58:16;11.70;99.90
43949;DHT22;29429;51.074;13.764;2023-06-14T02:00:43;11.70;99.90
43949;DHT22;29429;51.074;13.764;2023-06-14T02:03:11;11.70;99.90
43949;DHT22;29429;51.074;13.764;2023-06-14T02:05:39;11.70;99.90
43949;DHT22;29429;51.074;13.764;2023-06-14T02:08:07;11.60;99.90
43949;DHT22;29429;51.074;13.764;2023-06-14T02:10:34;11.60;99.90
43949;DHT22;29429;51.074;13.764;2023-06-14T02:13:02;11.50;99.90
43949;DHT22;29429;51.074;13.764;2023-06-14T02:15:29;11.40;99.90
43949;DHT22;29429;51.074;13.764;2023-06-14T02:18:04;11.40;99.90
43949;DHT22;29429;51.074;13.764;2023-06-14T02:20:33;11.30;99.90
43949;DHT22;29429;51.074;13.764;2023-06-14T02:23:00;11.40;99.90
43949;DHT22;29429;51.074;13.764;2023-06-14T02:25:30;11.20;99.90
43949;DHT22;29429;51.074;13.764;2023-06-14T02:27:58;11.10;99.90
43949;DHT22;29429;51.074;13.764;2023-06-14T02:30:25;11.10;99.90
43949;DHT22;29429;51.074;13.764;2023-06-14T02:32:54;11.00;99.90
43949;DHT22;29429;51.074;13.764;2023-06-14T02:35:21;11.00;99.90
43949;DHT22;29429;51.074;13.764;2023-06-14T02:37:51;10.90;99.90
43949;DHT22;29429;51.074;13.764;2023-06-14T02:40:22;10.80;99.90
43949;DHT22;29429;51.074;13.764;2023-06-14T02:42:49;10.80;99.90
43949;DHT22;29429;51.074;13.764;2023-06-14T02:45:17;10.80;99.90
43949;DHT22;29429;51.074;13.764;2023-06-14T02:47:45;10.90;99.90
43949;DHT22;29429;51.074;13.764;2023-06-14T02:50:13;10.80;99.90
43949;DHT22;29429;51.074;13.764;2023-06-14T02:52:40;10.70;99.90
43949;DHT22;29429;51.074;13.764;2023-06-14T02:55:11;10.70;99.90
43949;DHT22;29429;51.074;13.764;2023-06-14T02:57:38;10.60;99.90
43949;DHT22;29429;51.074;13.764;2023-06-14T03:00:08;10.70;99.90
43949;DHT22;29429;51.074;13.764;2023-06-14T03:02:37;10.70;99.90
43949;DHT22;29429;51.074;13.764;2023-06-14T03:05:04;10.70;99.90
43949;DHT22;29429;51.074;13.764;2023-06-14T03:07:34;10.80;99.90
43949;DHT22;29429;51.074;13.764;2023-06-14T03:10:03;10.80;99.90
43949;DHT22;29429;51.074;13.764;2023-06-14T03:12:31;10.80;99.90
43949;DHT22;29429;51.074;13.764;2023-06-14T03:14:58;10.90;99.90
43949;DHT22;29429;51.074;13.764;2023-06-14T03:17:31;10.80;99.90
43949;DHT22;29429;51.074;13.764;2023-06-14T03:20:00;10.90;99.90
43949;DHT22;29429;51.074;13.764;2023-06-14T03:22:27;10.90;99.90
43949;DHT22;29429;51.074;13.764;2023-06-14T03:24:55;10.90;99.90
43949;DHT22;29429;51.074;13.764;2023-06-14T03:27:22;10.90;99.90
43949;DHT22;29429;51.074;13.764;2023-06-14T03:29:49;10.90;99.90
43949;DHT22;29429;51.074;13.764;2023-06-14T03:32:16;10.90;99.90
43949;DHT22;29429;51.074;13.764;2023-06-14T03:34:44;10.90;99.90
43949;DHT22;29429;51.074;13.764;2023-06-14T03:37:19;10.90;99.90
43949;DHT22;29429;51.074;13.764;2023-06-14T03:39:47;11.00;99.90
43949;DHT22;29429;51.074;13.764;2023-06-14T03:42:19;11.00;99.90
43949;DHT22;29429;51.074;13.764;2023-06-14T03:44:47;11.00;99.90
43949;DHT22;29429;51.074;13.764;2023-06-14T03:47:15;11.10;99.90
43949;DHT22;29429;51.074;13.764;2023-06-14T03:49:43;11.10;99.90
43949;DHT22;29429;51.074;13.764;2023-06-14T03:52:10;11.20;99.90
43949;DHT22;29429;51.074;13.764;2023-06-14T03:54:40;11.20;99.90
43949;DHT22;29429;51.074;13.764;2023-06-14T03:57:29;11.20;99.90
43949;DHT22;29429;51.074;13.764;2023-06-14T03:59:57;11.30;99.90
43949;DHT22;29429;51.074;13.764;2023-06-14T04:02:26;11.30;99.90
43949;DHT22;29429;51.074;13.764;2023-06-14T04:04:55;11.20;99.90
43949;DHT22;29429;51.074;13.764;2023-06-14T04:07:23;11.40;99.90
43949;DHT22;29429;51.074;13.764;2023-06-14T04:09:50;11.40;99.90
43949;DHT22;29429;51.074;13.764;2023-06-14T04:12:17;11.40;99.90
43949;DHT22;29429;51.074;13.764;2023-06-14T04:14:44;11.40;99.90
43949;DHT22;29429;51.074;13.764;2023-06-14T04:17:11;11.50;99.90
43949;DHT22;29429;51.074;13.764;2023-06-14T04:19:43;11.50;99.90
43949;DHT22;29429;51.074;13.764;2023-06-14T04:22:09;11.70;99.90
43949;DHT22;29429;51.074;13.764;2023-06-14T04:24:38;11.80;99.90
43949;DHT22;29429;51.074;13.764;2023-06-14T04:27:05;11.80;99.90
43949;DHT22;29429;51.074;13.764;2023-06-14T04:29:34;11.80;99.90
43949;DHT22;29429;51.074;13.764;2023-06-14T04:32:05;11.80;99.90
43949;DHT22;29429;51.074;13.764;2023-06-14T04:34:37;11.90;99.90
43949;DHT22;29429;51.074;13.764;2023-06-14T04:37:07;11.90;99.90
43949;DHT22;29429;51.074;13.764;2023-06-14T04:39:37;11.90;99.90
43949;DHT22;29429;51.074;13.764;2023-06-14T04:42:04;12.00;99.90
43949;DHT22;29429;51.074;13.764;2023-06-14T04:44:34;12.00;99.90
43949;DHT22;29429;51.074;13.764;2023-06-14T04:47:02;12.10;99.90
43949;DHT22;29429;51.074;13.764;2023-06-14T04:49:30;12.10;99.90
43949;DHT22;29429;51.074;13.764;2023-06-14T04:51:59;12.20;99.90
43949;DHT22;29429;51.074;13.764;2023-06-14T04:54:34;12.30;99.90
43949;DHT22;29429;51.074;13.764;2023-06-14T04:57:05;12.40;99.90
43949;DHT22;29429;51.074;13.764;2023-06-14T04:59:32;12.40;99.90
43949;DHT22;29429;51.074;13.764;2023-06-14T05:02:02;12.50;99.90
43949;DHT22;29429;51.074;13.764;2023-06-14T05:04:29;12.50;99.90
43949;DHT22;29429;51.074;13.764;2023-06-14T05:06:57;12.60;99.90
43949;DHT22;29429;51.074;13.764;2023-06-14T05:09:25;12.60;99.90
43949;DHT22;29429;51.074;13.764;2023-06-14T05:11:52;12.60;99.90
43949;DHT22;29429;51.074;13.764;2023-06-14T05:14:20;12.70;99.90
43949;DHT22;29429;51.074;13.764;2023-06-14T05:16:50;12.80;99.90
43949;DHT22;29429;51.074;13.764;2023-06-14T05:19:17;12.90;99.90
43949;DHT22;29429;51.074;13.764;2023-06-14T05:21:45;13.00;99.90
43949;DHT22;29429;51.074;13.764;2023-06-14T05:24:13;13.20;99.90
43949;DHT22;29429;51.074;13.764;2023-06-14T05:26:43;13.30;99.90
43949;DHT22;29429;51.074;13.764;2023-06-14T05:29:11;13.40;99.90
43949;DHT22;29429;51.074;13.764;2023-06-14T05:31:38;13.40;99.90
43949;DHT22;29429;51.074;13.764;2023-06-14T05:34:06;13.40;99.90
43949;DHT22;29429;51.074;13.764;2023-06-14T05:36:33;13.40;99.90
43949;DHT22;29429;51.074;13.764;2023-06-14T05:39:00;13.40;99.90
43949;DHT22;29429;51.074;13.764;2023-06-14T05:41:29;13.50;99.90
43949;DHT22;29429;51.074;13.764;2023-06-14T05:43:57;13.60;99.90
43949;DHT22;29429;51.074;13.764;2023-06-14T05:46:24;13.60;99.90
43949;DHT22;29429;51.074;13.764;2023-06-14T05:48:53;13.70;99.90
43949;DHT22;29429;51.074;13.764;2023-06-14T05:51:21;13.90;99.90
43949;DHT22;29429;51.074;13.764;2023-06-14T05:53:53;14.00;99.90
43949;DHT22;29429;51.074;13.764;2023-06-14T05:56:21;14.30;99.90
43949;DHT22;29429;51.074;13.764;2023-06-14T05:58:47;14.40;99.90
43949;DHT22;29429;51.074;13.764;2023-06-14T06:01:16;14.50;99.90
43949;DHT22;29429;51.074;13.764;2023-06-14T06:03:43;14.50;99.90
43949;DHT22;29429;51.074;13.764;2023-06-14T06:06:13;14.50;99.90
43949;DHT22;29429;51.074;13.764;2023-06-14T06:08:41;14.60;99.90
43949;DHT22;29429;51.074;13.764;2023-06-14T06:11:08;14.60;99.90
43949;DHT22;29429;51.074;13.764;2023-06-14T06:13:35;14.60;99.90
43949;DHT22;29429;51.074;13.764;2023-06-14T06:16:03;14.60;99.90
43949;DHT22;29429;51.074;13.764;2023-06-14T06:18:30;14.70;99.90
43949;DHT22;29429;51.074;13.764;2023-06-14T06:20:58;14.70;99.90
43949;DHT22;29429;51.074;13.764;2023-06-14T06:23:25;14.80;99.90
43949;DHT22;29429;51.074;13.764;2023-06-14T06:25:52;14.90;99.90
43949;DHT22;29429;51.074;13.764;2023-06-14T06:28:20;15.00;99.90
43949;DHT22;29429;51.074;13.764;2023-06-14T06:30:47;15.10;99.90
43949;DHT22;29429;51.074;13.764;2023-06-14T06:33:14;15.30;99.90
43949;DHT22;29429;51.074;13.764;2023-06-14T06:35:41;15.40;99.90
43949;DHT22;29429;51.074;13.764;2023-06-14T06:38:09;15.50;99.90
43949;DHT22;29429;51.074;13.764;2023-06-14T06:40:37;15.60;99.90
43949;DHT22;29429;51.074;13.764;2023-06-14T06:43:04;15.60;99.90
43949;DHT22;29429;51.074;13.764;2023-06-14T06:45:42;15.80;99.90
43949;DHT22;29429;51.074;13.764;2023-06-14T06:48:09;15.90;99.90
43949;DHT22;29429;51.074;13.764;2023-06-14T06:50:37;16.00;99.90
43949;DHT22;29429;51.074;13.764;2023-06-14T06:53:04;16.00;99.90
43949;DHT22;29429;51.074;13.764;2023-06-14T06:55:32;16.10;99.90
43949;DHT22;29429;51.074;13.764;2023-06-14T06:57:59;16.20;99.90
43949;DHT22;29429;51.074;13.764;2023-06-14T07:00:27;16.30;99.90
43949;DHT22;29429;51.074;13.764;2023-06-14T07:02:54;16.40;99.90
43949;DHT22;29429;51.074;13.764;2023-06-14T07:05:22;16.50;99.90
43949;DHT22;29429;51.074;13.764;2023-06-14T07:07:49;16.60;99.90
43949;DHT22;29429;51.074;13.764;2023-06-14T07:10:16;16.70;99.90
43949;DHT22;29429;51.074;13.764;2023-06-14T07:12:43;16.80;99.90
43949;DHT22;29429;51.074;13.764;2023-06-14T07:15:11;16.80;99.90
43949;DHT22;29429;51.074;13.764;2023-06-14T07:17:39;16.80;99.90
43949;DHT22;29429;51.074;13.764;2023-06-14T07:20:07;16.80;99.90
43949;DHT22;29429;51.074;13.764;2023-06-14T07:22:42;16.90;99.90
43949;DHT22;29429;51.074;13.764;2023-06-14T07:25:12;17.00;99.90
43949;DHT22;29429;51.074;13.764;2023-06-14T07:27:43;17.10;99.90
43949;DHT22;29429;51.074;13.764;2023-06-14T07:30:10;17.20;99.70
43949;DHT22;29429;51.074;13.764;2023-06-14T07:32:38;17.30;99.10
43949;DHT22;29429;51.074;13.764;2023-06-14T07:35:05;17.40;98.80
43949;DHT22;29429;51.074;13.764;2023-06-14T07:37:33;17.40;97.70
43949;DHT22;29429;51.074;13.764;2023-06-14T07:40:00;17.50;97.90
43949;DHT22;29429;51.074;13.764;2023-06-14T07:42:29;17.50;97.10
43949;DHT22;29429;51.074;13.764;2023-06-14T07:44:56;17.50;97.50
43949;DHT22;29429;51.074;13.764;2023-06-14T07:47:23;17.60;97.40
43949;DHT22;29429;51.074;13.764;2023-06-14T07:49:50;17.70;97.30
43949;DHT22;29429;51.074;13.764;2023-06-14T07:52:17;17.80;96.80
43949;DHT22;29429;51.074;13.764;2023-06-14T07:54:44;17.90;96.80
43949;DHT22;29429;51.074;13.764;2023-06-14T07:57:12;18.00;96.90
43949;DHT22;29429;51.074;13.764;2023-06-14T07:59:39;18.10;96.30
43949;DHT22;29429;51.074;13.764;2023-06-14T08:02:06;18.20;95.30
43949;DHT22;29429;51.074;13.764;2023-06-14T08:04:33;18.30;95.00
43949;DHT22;29429;51.074;13.764;2023-06-14T08:07:00;18.40;94.70
43949;DHT22;29429;51.074;13.764;2023-06-14T08:09:27;18.50;94.60
43949;DHT22;29429;51.074;13.764;2023-06-14T08:11:56;18.70;94.40
43949;DHT22;29429;51.074;13.764;2023-06-14T08:14:23;18.80;94.00
43949;DHT22;29429;51.074;13.764;2023-06-14T08:16:50;19.00;94.20
43949;DHT22;29429;51.074;13.764;2023-06-14T08:19:17;19.10;93.50
43949;DHT22;29429;51.074;13.764;2023-06-14T08:21:46;19.20;92.80
43949;DHT22;29429;51.074;13.764;2023-06-14T08:24:14;19.30;92.70
43949;DHT22;29429;51.074;13.764;2023-06-14T08:26:44;19.50;92.00
43949;DHT22;29429;51.074;13.764;2023-06-14T08:29:12;19.70;91.00
43949;DHT22;29429;51.074;13.764;2023-06-14T08:31:39;19.80;90.00
43949;DHT22;29429;51.074;13.764;2023-06-14T08:34:06;19.90;87.40
43949;DHT22;29429;51.074;13.764;2023-06-14T08:36:35;20.00;86.60
43949;DHT22;29429;51.074;13.764;2023-06-14T08:39:02;20.10;84.80
43949;DHT22;29429;51.074;13.764;2023-06-14T08:41:30;20.00;82.70
43949;DHT22;29429;51.074;13.764;2023-06-14T08:43:57;20.00;84.20
43949;DHT22;29429;51.074;13.764;2023-06-14T08:46:26;20.10;81.90
43949;DHT22;29429;51.074;13.764;2023-06-14T08:48:56;20.10;82.60
43949;DHT22;29429;51.074;13.764;2023-06-14T08:51:25;20.20;81.10
43949;DHT22;29429;51.074;13.764;2023-06-14T08:53:55;20.20;78.90
43949;DHT22;29429;51.074;13.764;2023-06-14T08:56:28;20.20;78.60
43949;DHT22;29429;51.074;13.764;2023-06-14T08:58:57;20.10;79.10
43949;DHT22;29429;51.074;13.764;2023-06-14T09:01:28;20.20;78.80
43949;DHT22;29429;51.074;13.764;2023-06-14T09:03:55;20.00;79.60
43949;DHT22;29429;51.074;13.764;2023-06-14T09:06:23;19.90;80.40
43949;DHT22;29429;51.074;13.764;2023-06-14T09:08:51;19.90;82.20
43949;DHT22;29429;51.074;13.764;2023-06-14T09:11:20;20.00;82.40
43949;DHT22;29429;51.074;13.764;2023-06-14T09:13:48;20.10;82.70
43949;DHT22;29429;51.074;13.764;2023-06-14T09:16:16;20.10;81.40
43949;DHT22;29429;51.074;13.764;2023-06-14T09:18:47;20.20;81.70
43949;DHT22;29429;51.074;13.764;2023-06-14T09:21:16;20.30;82.60
43949;DHT22;29429;51.074;13.764;2023-06-14T09:23:46;20.50;82.80
43949;DHT22;29429;51.074;13.764;2023-06-14T09:26:19;20.80;82.80
43949;DHT22;29429;51.074;13.764;2023-06-14T09:28:50;21.10;80.90
43949;DHT22;29429;51.074;13.764;2023-06-14T09:31:19;21.30;77.60
43949;DHT22;29429;51.074;13.764;2023-06-14T09:33:48;21.40;76.20
43949;DHT22;29429;51.074;13.764;2023-06-14T09:36:18;21.60;75.20
43949;DHT22;29429;51.074;13.764;2023-06-14T09:38:58;21.60;74.60
43949;DHT22;29429;51.074;13.764;2023-06-14T09:41:37;21.70;74.60
43949;DHT22;29429;51.074;13.764;2023-06-14T09:44:07;21.80;73.40
43949;DHT22;29429;51.074;13.764;2023-06-14T09:46:43;21.80;73.90
43949;DHT22;29429;51.074;13.764;2023-06-14T09:49:11;21.80;73.60
43949;DHT22;29429;51.074;13.764;2023-06-14T09:51:43;21.80;72.70
43949;DHT22;29429;51.074;13.764;2023-06-14T09:54:26;21.90;74.10
43949;DHT22;29429;51.074;13.764;2023-06-14T09:56:58;22.00;72.40
43949;DHT22;29429;51.074;13.764;2023-06-14T09:59:27;22.10;74.50
43949;DHT22;29429;51.074;13.764;2023-06-14T10:02:10;22.30;72.30
43949;DHT22;29429;51.074;13.764;2023-06-14T10:04:56;22.20;72.00
43949;DHT22;29429;51.074;13.764;2023-06-14T10:07:30;22.00;72.40
43949;DHT22;29429;51.074;13.764;2023-06-14T10:10:00;21.60;72.00
43949;DHT22;29429;51.074;13.764;2023-06-14T10:12:28;21.20;74.10
43949;DHT22;29429;51.074;13.764;2023-06-14T10:14:55;20.90;74.20
43949;DHT22;29429;51.074;13.764;2023-06-14T10:20:28;20.50;77.50
43949;DHT22;29429;51.074;13.764;2023-06-14T10:23:07;20.30;77.40
43949;DHT22;29429;51.074;13.764;2023-06-14T10:25:38;20.20;77.70
43949;DHT22;29429;51.074;13.764;2023-06-14T10:28:20;20.10;77.80
43949;DHT22;29429;51.074;13.764;2023-06-14T10:31:08;20.00;78.60
43949;DHT22;29429;51.074;13.764;2023-06-14T10:33:50;20.10;79.70
43949;DHT22;29429;51.074;13.764;2023-06-14T10:36:26;20.30;80.00
43949;DHT22;29429;51.074;13.764;2023-06-14T10:41:29;20.70;78.20
43949;DHT22;29429;51.074;13.764;2023-06-14T10:46:55;20.90;80.00
43949;DHT22;29429;51.074;13.764;2023-06-14T10:52:09;21.00;76.40
43949;DHT22;29429;51.074;13.764;2023-06-14T10:55:16;20.90;76.30
43949;DHT22;29429;51.074;13.764;2023-06-14T10:57:51;20.70;77.60
43949;DHT22;29429;51.074;13.764;2023-06-14T11:00:33;20.60;78.40
43949;DHT22;29429;51.074;13.764;2023-06-14T11:03:53;20.60;79.00
43949;DHT22;29429;51.074;13.764;2023-06-14T11:13:46;21.30;78.20
43949;DHT22;29429;51.074;13.764;2023-06-14T11:16:36;21.30;79.40
43949;DHT22;29429;51.074;13.764;2023-06-14T11:20:12;21.20;77.90
43949;DHT22;29429;51.074;13.764;2023-06-14T11:24:09;21.10;78.40
43949;DHT22;29429;51.074;13.764;2023-06-14T11:40:35;21.50;79.90
43949;DHT22;29429;51.074;13.764;2023-06-14T11:44:11;21.40;79.30
43949;DHT22;29429;51.074;13.764;2023-06-14T11:48:20;21.20;79.70
43949;DHT22;29429;51.074;13.764;2023-06-14T11:51:09;21.10;81.10
43949;DHT22;29429;51.074;13.764;2023-06-14T11:55:02;21.20;80.20
43949;DHT22;29429;51.074;13.764;2023-06-14T11:58:07;21.40;80.50
43949;DHT22;29429;51.074;13.764;2023-06-14T12:00:36;21.50;79.40
43949;DHT22;29429;51.074;13.764;2023-06-14T12:03:04;21.60;80.30
43949;DHT22;29429;51.074;13.764;2023-06-14T12:05:33;21.70;79.30
43949;DHT22;29429;51.074;13.764;2023-06-14T12:08:03;21.80;77.70
43949;DHT22;29429;51.074;13.764;2023-06-14T12:10:41;21.80;78.40
43949;DHT22;29429;51.074;13.764;2023-06-14T12:13:10;21.90;79.20
43949;DHT22;29429;51.074;13.764;2023-06-14T12:15:37;22.00;78.90
43949;DHT22;29429;51.074;13.764;2023-06-14T12:18:06;21.90;78.90
43949;DHT22;29429;51.074;13.764;2023-06-14T12:20:36;21.80;79.20
43949;DHT22;29429;51.074;13.764;2023-06-14T12:23:04;21.60;80.30
43949;DHT22;29429;51.074;13.764;2023-06-14T12:25:35;21.60;79.90
43949;DHT22;29429;51.074;13.764;2023-06-14T12:28:07;21.40;80.10
43949;DHT22;29429;51.074;13.764;2023-06-14T12:30:36;21.30;81.20
43949;DHT22;29429;51.074;13.764;2023-06-14T12:33:05;21.30;82.00
43949;DHT22;29429;51.074;13.764;2023-06-14T12:35:33;21.40;82.20
43949;DHT22;29429;51.074;13.764;2023-06-14T12:38:00;21.60;82.10
43949;DHT22;29429;51.074;13.764;2023-06-14T12:40:27;21.70;80.00
43949;DHT22;29429;51.074;13.764;2023-06-14T12:42:55;21.60;79.00
43949;DHT22;29429;51.074;13.764;2023-06-14T12:45:22;21.40;80.10
43949;DHT22;29429;51.074;13.764;2023-06-14T12:47:50;21.30;80.70
43949;DHT22;29429;51.074;13.764;2023-06-14T12:50:18;21.30;81.70
43949;DHT22;29429;51.074;13.764;2023-06-14T12:52:48;21.30;81.50
43949;DHT22;29429;51.074;13.764;2023-06-14T12:55:15;21.30;81.70
43949;DHT22;29429;51.074;13.764;2023-06-14T12:57:43;21.20;82.60
43949;DHT22;29429;51.074;13.764;2023-06-14T13:00:10;21.10;83.30
43949;DHT22;29429;51.074;13.764;2023-06-14T13:02:40;20.80;82.00
43949;DHT22;29429;51.074;13.764;2023-06-14T13:05:07;20.70;83.30
43949;DHT22;29429;51.074;13.764;2023-06-14T13:07:35;20.60;83.90
43949;DHT22;29429;51.074;13.764;2023-06-14T13:10:03;20.70;84.30
43949;DHT22;29429;51.074;13.764;2023-06-14T13:12:30;21.10;83.40
43949;DHT22;29429;51.074;13.764;2023-06-14T13:14:57;21.40;82.40
43949;DHT22;29429;51.074;13.764;2023-06-14T13:17:24;21.60;82.40
43949;DHT22;29429;51.074;13.764;2023-06-14T13:19:51;21.70;81.60
43949;DHT22;29429;51.074;13.764;2023-06-14T13:22:18;21.60;81.60
43949;DHT22;29429;51.074;13.764;2023-06-14T13:24:45;21.40;81.90
43949;DHT22;29429;51.074;13.764;2023-06-14T13:27:12;21.30;82.10
43949;DHT22;29429;51.074;13.764;2023-06-14T13:29:41;21.10;83.00
43949;DHT22;29429;51.074;13.764;2023-06-14T13:32:08;20.80;83.40
43949;DHT22;29429;51.074;13.764;2023-06-14T13:34:35;20.70;84.40
43949;DHT22;29429;51.074;13.764;2023-06-14T13:37:02;20.70;84.80
43949;DHT22;29429;51.074;13.764;2023-06-14T13:39:56;20.90;84.60
43949;DHT22;29429;51.074;13.764;2023-06-14T13:42:51;21.20;82.60
43949;DHT22;29429;51.074;13.764;2023-06-14T13:45:18;21.40;80.90
43949;DHT22;29429;51.074;13.764;2023-06-14T13:47:45;21.60;78.10
43949;DHT22;29429;51.074;13.764;2023-06-14T13:50:15;21.70;78.90
43949;DHT22;29429;51.074;13.764;2023-06-14T13:52:43;21.80;79.20
43949;DHT22;29429;51.074;13.764;2023-06-14T13:55:10;21.80;79.90
43949;DHT22;29429;51.074;13.764;2023-06-14T13:57:37;21.80;80.00
43949;DHT22;29429;51.074;13.764;2023-06-14T14:00:04;21.90;80.30
43949;DHT22;29429;51.074;13.764;2023-06-14T14:02:38;21.80;78.00
43949;DHT22;29429;51.074;13.764;2023-06-14T14:05:07;21.50;78.60
43949;DHT22;29429;51.074;13.764;2023-06-14T14:07:35;21.20;78.80
43949;DHT22;29429;51.074;13.764;2023-06-14T14:10:03;21.10;79.30
43949;DHT22;29429;51.074;13.764;2023-06-14T14:12:30;21.10;80.20
43949;DHT22;29429;51.074;13.764;2023-06-14T14:14:58;21.20;79.30
43949;DHT22;29429;51.074;13.764;2023-06-14T14:17:25;21.30;79.40
43949;DHT22;29429;51.074;13.764;2023-06-14T14:19:52;21.50;78.30
43949;DHT22;29429;51.074;13.764;2023-06-14T14:22:19;21.50;76.50
43949;DHT22;29429;51.074;13.764;2023-06-14T14:24:46;21.30;77.10
43949;DHT22;29429;51.074;13.764;2023-06-14T14:27:13;21.20;78.40
43949;DHT22;29429;51.074;13.764;2023-06-14T14:29:41;21.00;79.10
43949;DHT22;29429;51.074;13.764;2023-06-14T14:32:08;20.90;79.50
43949;DHT22;29429;51.074;13.764;2023-06-14T14:34:40;20.90;78.40
43949;DHT22;29429;51.074;13.764;2023-06-14T14:37:07;21.00;79.20
43949;DHT22;29429;51.074;13.764;2023-06-14T14:39:37;21.10;77.40
43949;DHT22;29429;51.074;13.764;2023-06-14T14:42:04;21.20;75.70
43949;DHT22;29429;51.074;13.764;2023-06-14T14:44:58;21.30;75.80
43949;DHT22;29429;51.074;13.764;2023-06-14T14:47:44;21.40;74.00
43949;DHT22;29429;51.074;13.764;2023-06-14T14:50:11;21.50;74.80
43949;DHT22;29429;51.074;13.764;2023-06-14T14:52:39;21.50;73.70
43949;DHT22;29429;51.074;13.764;2023-06-14T14:55:06;21.50;73.10
43949;DHT22;29429;51.074;13.764;2023-06-14T14:57:34;21.30;73.30
43949;DHT22;29429;51.074;13.764;2023-06-14T15:00:04;21.20;73.80
43949;DHT22;29429;51.074;13.764;2023-06-14T15:02:32;21.20;74.00
43949;DHT22;29429;51.074;13.764;2023-06-14T15:04:59;21.30;74.60
43949;DHT22;29429;51.074;13.764;2023-06-14T15:07:28;21.50;72.80
43949;DHT22;29429;51.074;13.764;2023-06-14T15:09:55;21.80;72.80
43949;DHT22;29429;51.074;13.764;2023-06-14T15:12:22;22.10;72.40
43949;DHT22;29429;51.074;13.764;2023-06-14T15:14:53;22.40;73.20
43949;DHT22;29429;51.074;13.764;2023-06-14T15:17:33;22.60;73.40
43949;DHT22;29429;51.074;13.764;2023-06-14T15:20:00;22.70;71.00
43949;DHT22;29429;51.074;13.764;2023-06-14T15:22:27;22.60;71.30
43949;DHT22;29429;51.074;13.764;2023-06-14T15:24:54;22.40;70.60
43949;DHT22;29429;51.074;13.764;2023-06-14T15:27:21;22.20;69.40
43949;DHT22;29429;51.074;13.764;2023-06-14T15:29:50;22.00;70.70
43949;DHT22;29429;51.074;13.764;2023-06-14T15:32:21;21.80;71.70
43949;DHT22;29429;51.074;13.764;2023-06-14T15:34:48;21.70;72.40
43949;DHT22;29429;51.074;13.764;2023-06-14T15:37:20;21.50;72.20
43949;DHT22;29429;51.074;13.764;2023-06-14T15:39:58;21.40;73.10
43949;DHT22;29429;51.074;13.764;2023-06-14T15:42:33;21.40;74.00
43949;DHT22;29429;51.074;13.764;2023-06-14T15:45:01;21.40;74.30
43949;DHT22;29429;51.074;13.764;2023-06-14T15:47:28;21.20;73.20
43949;DHT22;29429;51.074;13.764;2023-06-14T15:49:54;21.10;73.40
43949;DHT22;29429;51.074;13.764;2023-06-14T15:52:22;21.00;69.40
43949;DHT22;29429;51.074;13.764;2023-06-14T15:54:49;20.90;70.50
43949;DHT22;29429;51.074;13.764;2023-06-14T15:57:16;21.00;70.00
43949;DHT22;29429;51.074;13.764;2023-06-14T15:59:43;21.10;70.30
43949;DHT22;29429;51.074;13.764;2023-06-14T16:02:10;21.10;69.40
43949;DHT22;29429;51.074;13.764;2023-06-14T16:04:37;21.10;68.40
43949;DHT22;29429;51.074;13.764;2023-06-14T16:07:04;21.20;68.00
43949;DHT22;29429;51.074;13.764;2023-06-14T16:09:31;21.30;68.10
43949;DHT22;29429;51.074;13.764;2023-06-14T16:11:58;21.20;68.50
43949;DHT22;29429;51.074;13.764;2023-06-14T16:14:25;21.30;68.40